CSN658 KSFO-ZGGG
Flight info
| Callsign | CSN658 |
|---|---|
| Flight time | N/A |
| Altitude | 32000 |
| Route | GNNRR3 AMAKR DCT SHENU DCT 41N130W 4320N13528W 45N140W 47N145W 49N150W 52N160W/N0488F340 DCT RIZON DCT EXAMY DCT NIKLL/N0495F350 R220 NRKEY/N0490F360 R220 NUBDA/N0482F370 R220 NANAC/N0485F360 R220 IXE Y88 NAKTU/N0481F380 Y88 KCC Y28 ISAKY Y592 ONIKU A593 LAMEN/K0891F380 A593 AKARA/K0893S1160 A593 PUD A599 NXD W131 AKDIM A470 DUBGO W134 ELNEX A599 PLT W19 OLPAB |
| Aircraft | B77W/H-SDE1E2E3FGHIJ2J3J4J5M1RWXY/LB1D1 |
Departure
| Time | 2026-05-06 07:52 |
|---|---|
| Airport | San Francisco International Airport (KSFO) |
Arrival
| Time | N/A |
|---|---|
| Airport | Guangzhou Baiyun International Airport (ZGGG) |
| Time | Latitude | Longitude | Altitude | Speed | Heading |
|---|---|---|---|---|---|
| 2026-05-06 07:17 | 37.61131 | -122.38978 | 26 ft | 0 kts | 341° |
| 2026-05-06 07:34 | 37.61130 | -122.38977 | 26 ft | 1 kts | 341° |
| 2026-05-06 07:35 | 37.61117 | -122.38972 | 26 ft | 3 kts | 341° |
| 2026-05-06 07:35 | 37.61099 | -122.38963 | 26 ft | 3 kts | 332° |
| 2026-05-06 07:35 | 37.61082 | -122.38949 | 26 ft | 3 kts | 321° |
| 2026-05-06 07:35 | 37.61067 | -122.38932 | 26 ft | 3 kts | 311° |
| 2026-05-06 07:36 | 37.61055 | -122.38911 | 26 ft | 3 kts | 300° |
| 2026-05-06 07:36 | 37.61046 | -122.38887 | 26 ft | 3 kts | 290° |
| 2026-05-06 07:36 | 37.61040 | -122.38862 | 26 ft | 3 kts | 280° |
| 2026-05-06 07:36 | 37.61038 | -122.38836 | 26 ft | 3 kts | 271° |
| 2026-05-06 07:37 | 37.61040 | -122.38811 | 26 ft | 3 kts | 262° |
| 2026-05-06 07:37 | 37.61044 | -122.38785 | 26 ft | 3 kts | 254° |
| 2026-05-06 07:37 | 37.61046 | -122.38778 | 26 ft | 0 kts | 252° |
| 2026-05-06 07:41 | 37.61042 | -122.38789 | 26 ft | 3 kts | 250° |
| 2026-05-06 07:41 | 37.61032 | -122.38813 | 26 ft | 7 kts | 237° |
| 2026-05-06 07:41 | 37.60979 | -122.38857 | 27 ft | 11 kts | 203° |
| 2026-05-06 07:42 | 37.60926 | -122.38834 | 27 ft | 10 kts | 113° |
| 2026-05-06 07:42 | 37.60891 | -122.38741 | 26 ft | 14 kts | 118° |
| 2026-05-06 07:42 | 37.60842 | -122.38624 | 27 ft | 16 kts | 118° |
| 2026-05-06 07:42 | 37.60792 | -122.38509 | 26 ft | 9 kts | 105° |
| 2026-05-06 07:43 | 37.60801 | -122.38452 | 26 ft | 7 kts | 62° |
| 2026-05-06 07:43 | 37.60843 | -122.38406 | 26 ft | 9 kts | 31° |
| 2026-05-06 07:43 | 37.60905 | -122.38362 | 26 ft | 11 kts | 29° |
| 2026-05-06 07:43 | 37.60936 | -122.38314 | 26 ft | 6 kts | 89° |
| 2026-05-06 07:44 | 37.60913 | -122.38254 | 26 ft | 10 kts | 117° |
| 2026-05-06 07:44 | 37.60880 | -122.38163 | 26 ft | 13 kts | 115° |
| 2026-05-06 07:44 | 37.60834 | -122.38049 | 26 ft | 16 kts | 119° |
| 2026-05-06 07:44 | 37.60786 | -122.37950 | 26 ft | 10 kts | 120° |
| 2026-05-06 07:45 | 37.60756 | -122.37878 | 26 ft | 9 kts | 108° |
| 2026-05-06 07:45 | 37.60788 | -122.37804 | 26 ft | 12 kts | 36° |
| 2026-05-06 07:45 | 37.60866 | -122.37751 | 26 ft | 14 kts | 27° |
| 2026-05-06 07:45 | 37.60961 | -122.37688 | 26 ft | 17 kts | 27° |
| 2026-05-06 07:46 | 37.61069 | -122.37617 | 26 ft | 18 kts | 27° |
| 2026-05-06 07:46 | 37.61187 | -122.37540 | 26 ft | 20 kts | 27° |
| 2026-05-06 07:46 | 37.61312 | -122.37458 | 26 ft | 20 kts | 27° |
| 2026-05-06 07:46 | 37.61435 | -122.37377 | 26 ft | 18 kts | 27° |
| 2026-05-06 07:47 | 37.61528 | -122.37293 | 26 ft | 15 kts | 52° |
| 2026-05-06 07:47 | 37.61561 | -122.37169 | 26 ft | 14 kts | 88° |
| 2026-05-06 07:47 | 37.61532 | -122.37048 | 26 ft | 15 kts | 116° |
| 2026-05-06 07:47 | 37.61483 | -122.36931 | 26 ft | 15 kts | 120° |
| 2026-05-06 07:48 | 37.61412 | -122.36830 | 26 ft | 16 kts | 138° |
| 2026-05-06 07:48 | 37.61346 | -122.36722 | 26 ft | 16 kts | 118° |
| 2026-05-06 07:48 | 37.61292 | -122.36594 | 26 ft | 17 kts | 118° |
| 2026-05-06 07:48 | 37.61236 | -122.36461 | 26 ft | 17 kts | 118° |
| 2026-05-06 07:49 | 37.61179 | -122.36325 | 26 ft | 18 kts | 118° |
| 2026-05-06 07:49 | 37.61120 | -122.36186 | 26 ft | 17 kts | 118° |
| 2026-05-06 07:49 | 37.61074 | -122.36077 | 26 ft | 11 kts | 116° |
| 2026-05-06 07:49 | 37.61053 | -122.35999 | 26 ft | 9 kts | 95° |
| 2026-05-06 07:50 | 37.61076 | -122.35925 | 26 ft | 10 kts | 41° |
| 2026-05-06 07:50 | 37.61128 | -122.35885 | 26 ft | 8 kts | 28° |
| 2026-05-06 07:50 | 37.61177 | -122.35867 | 26 ft | 6 kts | 349° |
| 2026-05-06 07:50 | 37.61200 | -122.35903 | 26 ft | 6 kts | 294° |
| 2026-05-06 07:51 | 37.61217 | -122.35944 | 26 ft | 4 kts | 297° |
| 2026-05-06 07:51 | 37.61220 | -122.35952 | 26 ft | 1 kts | 297° |
| 2026-05-06 07:51 | 37.61250 | -122.36024 | 26 ft | 28 kts | 298° |
| 2026-05-06 07:51 | 37.61473 | -122.36557 | 27 ft | 110 kts | 298° |
| 2026-05-06 07:52 | 37.61955 | -122.37705 | 28 ft | 183 kts | 298° |
| 2026-05-06 07:52 | 37.62603 | -122.39248 | 529 ft | 203 kts | 298° |
| 2026-05-06 07:52 | 37.63273 | -122.40844 | 1524 ft | 208 kts | 297° |
| 2026-05-06 07:52 | 37.63959 | -122.42446 | 2418 ft | 214 kts | 298° |
| 2026-05-06 07:53 | 37.64709 | -122.44132 | 2810 ft | 226 kts | 300° |
| 2026-05-06 07:53 | 37.65501 | -122.45903 | 3113 ft | 236 kts | 300° |
| 2026-05-06 07:53 | 37.66325 | -122.47751 | 3403 ft | 248 kts | 300° |
| 2026-05-06 07:53 | 37.67198 | -122.49708 | 3662 ft | 260 kts | 300° |
| 2026-05-06 07:54 | 37.68164 | -122.51656 | 4171 ft | 265 kts | 305° |
| 2026-05-06 07:54 | 37.69244 | -122.53553 | 4753 ft | 265 kts | 308° |
| 2026-05-06 07:54 | 37.70369 | -122.55403 | 5353 ft | 266 kts | 309° |
| 2026-05-06 07:54 | 37.71502 | -122.57235 | 5868 ft | 270 kts | 309° |
| 2026-05-06 07:55 | 37.72652 | -122.59130 | 6391 ft | 273 kts | 309° |
| 2026-05-06 07:55 | 37.73805 | -122.61065 | 6905 ft | 277 kts | 309° |
| 2026-05-06 07:55 | 37.74961 | -122.63024 | 7402 ft | 280 kts | 309° |
| 2026-05-06 07:55 | 37.76132 | -122.65018 | 7902 ft | 283 kts | 309° |
| 2026-05-06 07:56 | 37.77311 | -122.67030 | 8406 ft | 286 kts | 309° |
| 2026-05-06 07:56 | 37.78499 | -122.69057 | 8895 ft | 289 kts | 309° |
| 2026-05-06 07:56 | 37.79700 | -122.71109 | 9375 ft | 292 kts | 310° |
| 2026-05-06 07:56 | 37.80920 | -122.73181 | 9845 ft | 294 kts | 311° |
| 2026-05-06 07:57 | 37.82274 | -122.75078 | 10237 ft | 298 kts | 320° |
| 2026-05-06 07:57 | 37.83921 | -122.76777 | 10427 ft | 313 kts | 326° |
| 2026-05-06 07:57 | 37.85737 | -122.78422 | 10596 ft | 330 kts | 328° |
| 2026-05-06 07:57 | 37.87689 | -122.80094 | 10775 ft | 347 kts | 329° |
| 2026-05-06 07:58 | 37.89745 | -122.81807 | 11074 ft | 360 kts | 329° |
| 2026-05-06 07:58 | 37.91869 | -122.83569 | 11502 ft | 369 kts | 329° |
| 2026-05-06 07:58 | 37.94044 | -122.85375 | 12036 ft | 376 kts | 329° |
| 2026-05-06 07:58 | 37.96247 | -122.87209 | 12630 ft | 380 kts | 329° |
| 2026-05-06 07:59 | 37.98469 | -122.89062 | 13227 ft | 384 kts | 329° |
| 2026-05-06 07:59 | 38.00682 | -122.90909 | 13817 ft | 388 kts | 329° |
| 2026-05-06 07:59 | 38.02949 | -122.92803 | 14405 ft | 391 kts | 329° |
| 2026-05-06 07:59 | 38.05239 | -122.94718 | 14989 ft | 395 kts | 330° |
| 2026-05-06 08:00 | 38.07536 | -122.96641 | 15571 ft | 398 kts | 330° |
| 2026-05-06 08:00 | 38.09867 | -122.98594 | 16140 ft | 401 kts | 330° |
| 2026-05-06 08:00 | 38.12210 | -123.00549 | 16691 ft | 404 kts | 330° |
| 2026-05-06 08:00 | 38.14575 | -123.02506 | 17211 ft | 408 kts | 330° |
| 2026-05-06 08:01 | 38.16980 | -123.04506 | 17560 ft | 416 kts | 329° |
| 2026-05-06 08:01 | 38.19397 | -123.06522 | 17943 ft | 423 kts | 329° |
| 2026-05-06 08:01 | 38.21861 | -123.08583 | 18419 ft | 426 kts | 329° |
| 2026-05-06 08:01 | 38.24351 | -123.10669 | 18909 ft | 430 kts | 329° |
| 2026-05-06 08:02 | 38.26855 | -123.12770 | 19381 ft | 433 kts | 329° |
| 2026-05-06 08:02 | 38.29382 | -123.14894 | 19841 ft | 437 kts | 329° |
| 2026-05-06 08:02 | 38.31928 | -123.17035 | 20289 ft | 440 kts | 329° |
| 2026-05-06 08:02 | 38.34495 | -123.19196 | 20724 ft | 444 kts | 329° |
| 2026-05-06 08:03 | 38.37084 | -123.21378 | 21173 ft | 446 kts | 330° |
| 2026-05-06 08:03 | 38.39655 | -123.23547 | 21844 ft | 443 kts | 330° |
| 2026-05-06 08:03 | 38.42229 | -123.25719 | 22364 ft | 443 kts | 330° |
| 2026-05-06 08:03 | 38.44775 | -123.27870 | 22753 ft | 446 kts | 330° |
| 2026-05-06 08:04 | 38.47378 | -123.30072 | 23107 ft | 450 kts | 330° |
| 2026-05-06 08:04 | 38.49997 | -123.32289 | 23481 ft | 453 kts | 330° |
| 2026-05-06 08:04 | 38.52632 | -123.34522 | 23849 ft | 456 kts | 330° |
| 2026-05-06 08:04 | 38.55289 | -123.36774 | 24207 ft | 459 kts | 330° |
| 2026-05-06 08:05 | 38.57963 | -123.39044 | 24562 ft | 462 kts | 330° |
| 2026-05-06 08:05 | 38.60656 | -123.41333 | 24911 ft | 466 kts | 330° |
| 2026-05-06 08:05 | 38.63363 | -123.43634 | 25251 ft | 469 kts | 330° |
| 2026-05-06 08:05 | 38.66096 | -123.45960 | 25568 ft | 472 kts | 330° |
| 2026-05-06 08:06 | 38.68801 | -123.48264 | 25899 ft | 475 kts | 330° |
| 2026-05-06 08:06 | 38.71563 | -123.50620 | 26223 ft | 478 kts | 330° |
| 2026-05-06 08:06 | 38.74344 | -123.52986 | 26532 ft | 480 kts | 330° |
| 2026-05-06 08:06 | 38.77139 | -123.55351 | 26830 ft | 484 kts | 330° |
| 2026-05-06 08:07 | 38.79956 | -123.57756 | 27198 ft | 483 kts | 329° |
| 2026-05-06 08:07 | 38.82749 | -123.60150 | 27604 ft | 482 kts | 329° |
| 2026-05-06 08:07 | 38.85494 | -123.62508 | 28108 ft | 478 kts | 329° |
| 2026-05-06 08:07 | 38.88250 | -123.64878 | 28577 ft | 475 kts | 329° |
| 2026-05-06 08:08 | 38.90998 | -123.67243 | 28963 ft | 475 kts | 329° |
| 2026-05-06 08:08 | 38.93738 | -123.69603 | 29269 ft | 475 kts | 329° |
| 2026-05-06 08:08 | 38.96431 | -123.72092 | 29485 ft | 479 kts | 323° |
| 2026-05-06 08:08 | 38.98816 | -123.75132 | 29697 ft | 486 kts | 313° |
| 2026-05-06 08:09 | 39.00801 | -123.78679 | 29941 ft | 491 kts | 305° |
| 2026-05-06 08:09 | 39.02475 | -123.82522 | 30179 ft | 494 kts | 300° |
| 2026-05-06 08:09 | 39.05274 | -123.90598 | 30170 ft | 494 kts | 295° |
| 2026-05-06 08:10 | 39.07809 | -123.98782 | 30170 ft | 495 kts | 295° |
| 2026-05-06 08:10 | 39.10401 | -124.06985 | 30171 ft | 495 kts | 296° |
| 2026-05-06 08:11 | 39.13021 | -124.15188 | 30198 ft | 495 kts | 296° |
| 2026-05-06 08:11 | 39.15692 | -124.23354 | 30201 ft | 494 kts | 296° |
| 2026-05-06 08:12 | 39.18358 | -124.31541 | 30175 ft | 497 kts | 296° |
| 2026-05-06 08:12 | 39.21026 | -124.39817 | 30172 ft | 500 kts | 296° |
| 2026-05-06 08:13 | 39.23670 | -124.48063 | 30172 ft | 499 kts | 296° |
| 2026-05-06 08:13 | 39.26315 | -124.56343 | 30172 ft | 499 kts | 296° |
| 2026-05-06 08:14 | 39.28955 | -124.64637 | 30171 ft | 499 kts | 296° |
| 2026-05-06 08:14 | 39.31590 | -124.72936 | 30171 ft | 499 kts | 295° |
| 2026-05-06 08:15 | 39.34219 | -124.81244 | 30170 ft | 500 kts | 295° |
| 2026-05-06 08:15 | 39.36842 | -124.89557 | 30170 ft | 500 kts | 295° |
| 2026-05-06 08:16 | 39.39460 | -124.97880 | 30171 ft | 500 kts | 295° |
| 2026-05-06 08:16 | 39.42076 | -125.06222 | 30171 ft | 500 kts | 295° |
| 2026-05-06 08:17 | 39.44679 | -125.14546 | 30173 ft | 499 kts | 295° |
| 2026-05-06 08:17 | 39.47271 | -125.22861 | 30171 ft | 497 kts | 295° |
| 2026-05-06 08:18 | 39.49833 | -125.31107 | 30172 ft | 497 kts | 294° |
| 2026-05-06 08:18 | 39.52409 | -125.39419 | 30172 ft | 497 kts | 294° |
| 2026-05-06 08:19 | 39.54978 | -125.47735 | 30171 ft | 497 kts | 294° |
| 2026-05-06 08:19 | 39.57538 | -125.56049 | 30171 ft | 497 kts | 294° |
| 2026-05-06 08:20 | 39.60097 | -125.64383 | 30170 ft | 497 kts | 294° |
| 2026-05-06 08:20 | 39.62648 | -125.72718 | 30171 ft | 497 kts | 294° |
| 2026-05-06 08:21 | 39.65180 | -125.81015 | 30171 ft | 497 kts | 294° |
| 2026-05-06 08:21 | 39.67720 | -125.89364 | 30172 ft | 497 kts | 294° |
| 2026-05-06 08:22 | 39.70253 | -125.97716 | 30175 ft | 496 kts | 294° |
| 2026-05-06 08:22 | 39.72763 | -126.06021 | 30170 ft | 492 kts | 294° |
| 2026-05-06 08:23 | 39.75244 | -126.14251 | 30171 ft | 492 kts | 294° |
| 2026-05-06 08:23 | 39.77730 | -126.22526 | 30172 ft | 492 kts | 294° |
| 2026-05-06 08:24 | 39.80217 | -126.30827 | 30172 ft | 492 kts | 294° |
| 2026-05-06 08:24 | 39.82696 | -126.39128 | 30171 ft | 492 kts | 294° |
| 2026-05-06 08:25 | 39.85169 | -126.47434 | 30171 ft | 492 kts | 294° |
| 2026-05-06 08:25 | 39.87634 | -126.55743 | 30170 ft | 492 kts | 293° |
| 2026-05-06 08:26 | 39.90096 | -126.64000 | 30171 ft | 492 kts | 294° |
| 2026-05-06 08:26 | 39.92571 | -126.72317 | 30171 ft | 492 kts | 293° |
| 2026-05-06 08:27 | 39.95009 | -126.80659 | 30171 ft | 492 kts | 293° |
| 2026-05-06 08:27 | 39.97437 | -126.88997 | 30171 ft | 491 kts | 292° |
| 2026-05-06 08:28 | 39.99862 | -126.97325 | 30172 ft | 491 kts | 292° |
| 2026-05-06 08:28 | 40.02396 | -127.05526 | 30171 ft | 490 kts | 295° |
| 2026-05-06 08:29 | 40.05249 | -127.13599 | 30171 ft | 490 kts | 297° |
| 2026-05-06 08:29 | 40.07631 | -127.20316 | 30172 ft | 490 kts | 296° |
| 2026-05-06 08:30 | 40.10447 | -127.28425 | 30171 ft | 490 kts | 296° |
| 2026-05-06 08:30 | 40.13237 | -127.36543 | 30171 ft | 490 kts | 296° |
| 2026-05-06 08:31 | 40.16040 | -127.44664 | 30170 ft | 490 kts | 296° |
| 2026-05-06 08:31 | 40.18871 | -127.52770 | 30170 ft | 490 kts | 296° |
| 2026-05-06 08:32 | 40.21668 | -127.60893 | 30171 ft | 490 kts | 296° |
| 2026-05-06 08:32 | 40.24453 | -127.69035 | 30171 ft | 489 kts | 295° |
| 2026-05-06 08:33 | 40.27204 | -127.77112 | 30172 ft | 488 kts | 295° |
| 2026-05-06 08:33 | 40.29969 | -127.85258 | 30172 ft | 489 kts | 295° |
| 2026-05-06 08:34 | 40.34102 | -127.97481 | 30171 ft | 489 kts | 295° |
| 2026-05-06 08:35 | 40.36850 | -128.05638 | 30170 ft | 489 kts | 295° |
| 2026-05-06 08:35 | 40.39574 | -128.13746 | 30170 ft | 489 kts | 295° |
| 2026-05-06 08:36 | 40.42310 | -128.21913 | 30171 ft | 489 kts | 295° |
| 2026-05-06 08:36 | 40.45040 | -128.30089 | 30172 ft | 489 kts | 295° |
| 2026-05-06 08:37 | 40.47764 | -128.38268 | 30172 ft | 489 kts | 295° |
| 2026-05-06 08:37 | 40.50485 | -128.46462 | 30172 ft | 489 kts | 294° |
| 2026-05-06 08:38 | 40.53199 | -128.54659 | 30171 ft | 489 kts | 294° |
| 2026-05-06 08:38 | 40.55891 | -128.62814 | 30170 ft | 489 kts | 294° |
| 2026-05-06 08:39 | 40.58597 | -128.71035 | 30170 ft | 489 kts | 294° |
| 2026-05-06 08:39 | 40.61296 | -128.79262 | 30171 ft | 489 kts | 294° |
| 2026-05-06 08:40 | 40.63991 | -128.87499 | 30171 ft | 489 kts | 294° |
| 2026-05-06 08:40 | 40.66677 | -128.95734 | 30172 ft | 489 kts | 294° |
| 2026-05-06 08:41 | 40.69342 | -129.03927 | 30172 ft | 489 kts | 294° |
| 2026-05-06 08:41 | 40.72019 | -129.12182 | 30171 ft | 489 kts | 294° |
| 2026-05-06 08:42 | 40.74694 | -129.20456 | 30171 ft | 489 kts | 294° |
| 2026-05-06 08:42 | 40.77361 | -129.28731 | 30170 ft | 489 kts | 294° |
| 2026-05-06 08:43 | 40.80014 | -129.36988 | 30170 ft | 494 kts | 294° |
| 2026-05-06 08:43 | 40.82700 | -129.45373 | 30171 ft | 496 kts | 294° |
| 2026-05-06 08:44 | 40.85381 | -129.53766 | 30172 ft | 495 kts | 294° |
| 2026-05-06 08:44 | 40.88061 | -129.62163 | 30173 ft | 495 kts | 294° |
| 2026-05-06 08:45 | 40.90762 | -129.70554 | 30172 ft | 495 kts | 294° |
| 2026-05-06 08:45 | 40.93395 | -129.78916 | 30171 ft | 495 kts | 294° |
| 2026-05-06 08:46 | 40.96036 | -129.87339 | 30171 ft | 495 kts | 294° |
| 2026-05-06 08:46 | 40.98812 | -129.95686 | 30173 ft | 494 kts | 300° |
| 2026-05-06 08:47 | 41.02812 | -130.03043 | 30166 ft | 492 kts | 313° |
| 2026-05-06 08:47 | 41.07644 | -130.09458 | 30172 ft | 491 kts | 318° |
| 2026-05-06 08:48 | 41.12697 | -130.15512 | 30173 ft | 486 kts | 318° |
| 2026-05-06 08:48 | 41.17648 | -130.21474 | 30171 ft | 482 kts | 318° |
| 2026-05-06 08:49 | 41.22601 | -130.27503 | 30172 ft | 482 kts | 318° |
| 2026-05-06 08:49 | 41.27558 | -130.33532 | 30172 ft | 482 kts | 318° |
| 2026-05-06 08:50 | 41.32495 | -130.39504 | 30172 ft | 482 kts | 318° |
| 2026-05-06 08:50 | 41.37480 | -130.45585 | 30171 ft | 482 kts | 318° |
| 2026-05-06 08:51 | 41.42380 | -130.51590 | 30171 ft | 482 kts | 317° |
| 2026-05-06 08:51 | 41.47318 | -130.57660 | 30170 ft | 482 kts | 317° |
| 2026-05-06 08:52 | 41.52251 | -130.63740 | 30170 ft | 482 kts | 317° |
| 2026-05-06 08:52 | 41.57179 | -130.69827 | 30171 ft | 482 kts | 317° |
| 2026-05-06 08:53 | 41.62104 | -130.75924 | 30172 ft | 485 kts | 315° |
| 2026-05-06 08:53 | 41.67082 | -130.82101 | 30172 ft | 490 kts | 315° |
| 2026-05-06 08:54 | 41.72046 | -130.88273 | 30172 ft | 489 kts | 315° |
| 2026-05-06 08:54 | 41.77037 | -130.94493 | 30172 ft | 489 kts | 315° |
| 2026-05-06 08:55 | 41.82014 | -131.00709 | 30171 ft | 489 kts | 315° |
| 2026-05-06 08:55 | 41.86989 | -131.06936 | 30170 ft | 489 kts | 315° |
| 2026-05-06 08:56 | 41.91967 | -131.13182 | 30170 ft | 489 kts | 315° |
| 2026-05-06 08:56 | 41.96934 | -131.19428 | 30171 ft | 489 kts | 315° |
| 2026-05-06 08:57 | 42.01860 | -131.25635 | 30171 ft | 489 kts | 315° |
| 2026-05-06 08:57 | 42.06826 | -131.31908 | 30172 ft | 489 kts | 315° |
| 2026-05-06 08:58 | 42.11782 | -131.38181 | 30188 ft | 488 kts | 315° |
| 2026-05-06 08:58 | 42.16727 | -131.44455 | 30199 ft | 487 kts | 315° |
| 2026-05-06 08:59 | 42.21657 | -131.50724 | 30200 ft | 487 kts | 315° |
| 2026-05-06 08:59 | 42.26545 | -131.56953 | 30201 ft | 487 kts | 315° |
| 2026-05-06 09:00 | 42.31464 | -131.63237 | 30201 ft | 487 kts | 315° |
| 2026-05-06 09:00 | 42.36386 | -131.69538 | 30201 ft | 487 kts | 315° |
| 2026-05-06 09:01 | 42.41299 | -131.75841 | 30201 ft | 487 kts | 315° |
| 2026-05-06 09:01 | 42.46208 | -131.82155 | 30200 ft | 487 kts | 315° |
| 2026-05-06 09:02 | 42.51115 | -131.88480 | 30200 ft | 487 kts | 315° |
| 2026-05-06 09:02 | 42.56014 | -131.94809 | 30200 ft | 487 kts | 315° |
| 2026-05-06 09:03 | 42.60914 | -132.01155 | 30203 ft | 485 kts | 315° |
| 2026-05-06 09:03 | 42.65778 | -132.07466 | 30200 ft | 481 kts | 315° |
| 2026-05-06 09:04 | 42.70615 | -132.13759 | 30201 ft | 481 kts | 315° |
| 2026-05-06 09:04 | 42.75427 | -132.20032 | 30201 ft | 481 kts | 315° |
| 2026-05-06 09:05 | 42.80258 | -132.26345 | 30201 ft | 481 kts | 315° |
| 2026-05-06 09:05 | 42.85086 | -132.32668 | 30200 ft | 481 kts | 315° |
| 2026-05-06 09:06 | 42.89915 | -132.39006 | 30200 ft | 481 kts | 315° |
| 2026-05-06 09:06 | 42.94714 | -132.45320 | 30191 ft | 481 kts | 315° |
| 2026-05-06 09:07 | 42.99525 | -132.51666 | 30191 ft | 481 kts | 315° |
| 2026-05-06 09:07 | 43.04332 | -132.58019 | 30199 ft | 481 kts | 315° |
| 2026-05-06 09:08 | 43.09150 | -132.64402 | 30167 ft | 481 kts | 315° |
| 2026-05-06 09:08 | 43.13936 | -132.70701 | 30138 ft | 478 kts | 315° |
| 2026-05-06 09:09 | 43.18710 | -132.77056 | 30138 ft | 478 kts | 314° |
| 2026-05-06 09:09 | 43.23476 | -132.83437 | 30146 ft | 479 kts | 314° |
| 2026-05-06 09:10 | 43.28235 | -132.89820 | 30137 ft | 478 kts | 314° |
| 2026-05-06 09:10 | 43.32534 | -132.96761 | 30136 ft | 476 kts | 302° |
| 2026-05-06 09:11 | 43.35549 | -133.04843 | 30131 ft | 476 kts | 293° |
| 2026-05-06 09:11 | 43.37958 | -133.13244 | 30138 ft | 475 kts | 289° |
| 2026-05-06 09:12 | 43.40207 | -133.21794 | 30136 ft | 475 kts | 289° |
| 2026-05-06 09:12 | 43.42476 | -133.30345 | 30135 ft | 475 kts | 289° |
| 2026-05-06 09:13 | 43.44751 | -133.38887 | 30127 ft | 475 kts | 289° |
| 2026-05-06 09:13 | 43.47070 | -133.47390 | 30126 ft | 474 kts | 289° |
| 2026-05-06 09:14 | 43.49394 | -133.55879 | 30135 ft | 474 kts | 289° |
| 2026-05-06 09:14 | 43.51676 | -133.64333 | 30126 ft | 474 kts | 289° |
| 2026-05-06 09:15 | 43.53957 | -133.72854 | 30125 ft | 474 kts | 289° |
| 2026-05-06 09:15 | 43.56229 | -133.81386 | 30134 ft | 474 kts | 289° |
| 2026-05-06 09:16 | 43.58493 | -133.89921 | 30114 ft | 473 kts | 289° |
| 2026-05-06 09:16 | 43.60743 | -133.98436 | 30090 ft | 472 kts | 289° |
| 2026-05-06 09:17 | 43.62984 | -134.06951 | 30084 ft | 472 kts | 289° |
| 2026-05-06 09:17 | 43.64840 | -134.14024 | 30067 ft | 471 kts | 289° |
| 2026-05-06 09:18 | 43.67064 | -134.22526 | 30067 ft | 471 kts | 289° |
| 2026-05-06 09:18 | 43.69286 | -134.31054 | 30068 ft | 470 kts | 288° |
| 2026-05-06 09:19 | 43.71491 | -134.39545 | 30067 ft | 469 kts | 288° |
| 2026-05-06 09:19 | 43.73673 | -134.47979 | 30068 ft | 469 kts | 288° |
| 2026-05-06 09:20 | 43.75869 | -134.56500 | 30067 ft | 469 kts | 288° |
| 2026-05-06 09:20 | 43.78054 | -134.65004 | 30065 ft | 469 kts | 288° |
| 2026-05-06 09:21 | 43.80216 | -134.73454 | 30066 ft | 469 kts | 288° |
| 2026-05-06 09:21 | 43.82391 | -134.81983 | 30082 ft | 469 kts | 288° |
| 2026-05-06 09:22 | 43.84560 | -134.90520 | 30084 ft | 469 kts | 288° |
| 2026-05-06 09:22 | 43.86714 | -134.99026 | 30068 ft | 469 kts | 288° |
| 2026-05-06 09:23 | 43.88870 | -135.07575 | 30152 ft | 470 kts | 288° |
| 2026-05-06 09:23 | 43.91028 | -135.16165 | 30180 ft | 472 kts | 287° |
| 2026-05-06 09:24 | 43.93174 | -135.24736 | 30179 ft | 468 kts | 287° |
| 2026-05-06 09:24 | 43.95293 | -135.33231 | 30200 ft | 468 kts | 287° |
| 2026-05-06 09:25 | 43.97420 | -135.41787 | 30200 ft | 468 kts | 287° |
| 2026-05-06 09:25 | 43.99537 | -135.50338 | 30200 ft | 468 kts | 287° |
| 2026-05-06 09:26 | 44.01652 | -135.58914 | 30200 ft | 468 kts | 287° |
| 2026-05-06 09:26 | 44.03757 | -135.67479 | 30201 ft | 468 kts | 287° |
| 2026-05-06 09:27 | 44.05845 | -135.76006 | 30201 ft | 468 kts | 287° |
| 2026-05-06 09:27 | 44.07939 | -135.84592 | 30201 ft | 468 kts | 287° |
| 2026-05-06 09:28 | 44.10023 | -135.93169 | 30200 ft | 468 kts | 287° |
| 2026-05-06 09:28 | 44.12105 | -136.01770 | 30200 ft | 468 kts | 287° |
| 2026-05-06 09:29 | 44.14179 | -136.10368 | 30200 ft | 468 kts | 286° |
| 2026-05-06 09:29 | 44.16243 | -136.18961 | 30201 ft | 467 kts | 286° |
| 2026-05-06 09:30 | 44.18300 | -136.27553 | 30201 ft | 467 kts | 286° |
| 2026-05-06 09:30 | 44.20335 | -136.36090 | 30201 ft | 467 kts | 286° |
| 2026-05-06 09:31 | 44.22381 | -136.44707 | 30200 ft | 467 kts | 286° |
| 2026-05-06 09:31 | 44.24419 | -136.53320 | 30200 ft | 467 kts | 285° |
| 2026-05-06 09:32 | 44.26437 | -136.61884 | 30200 ft | 467 kts | 285° |
| 2026-05-06 09:32 | 44.28459 | -136.70498 | 30201 ft | 467 kts | 285° |
| 2026-05-06 09:33 | 44.30476 | -136.79121 | 30201 ft | 467 kts | 285° |
| 2026-05-06 09:33 | 44.32486 | -136.87751 | 30201 ft | 467 kts | 285° |
| 2026-05-06 09:34 | 44.34486 | -136.96370 | 30200 ft | 465 kts | 285° |
| 2026-05-06 09:34 | 44.36471 | -137.04960 | 30200 ft | 464 kts | 285° |
| 2026-05-06 09:35 | 44.38449 | -137.13553 | 30200 ft | 464 kts | 285° |
| 2026-05-06 09:35 | 44.40409 | -137.22102 | 30201 ft | 464 kts | 285° |
| 2026-05-06 09:36 | 44.42375 | -137.30709 | 30201 ft | 464 kts | 285° |
| 2026-05-06 09:36 | 44.44335 | -137.39323 | 30201 ft | 464 kts | 285° |
| 2026-05-06 09:37 | 44.46286 | -137.47936 | 30201 ft | 464 kts | 284° |
| 2026-05-06 09:37 | 44.48219 | -137.56499 | 30200 ft | 464 kts | 284° |
| 2026-05-06 09:38 | 44.50158 | -137.65124 | 30200 ft | 464 kts | 284° |
| 2026-05-06 09:38 | 44.52093 | -137.73766 | 30201 ft | 464 kts | 284° |
| 2026-05-06 09:39 | 44.54018 | -137.82399 | 30201 ft | 464 kts | 284° |
| 2026-05-06 09:39 | 44.55936 | -137.91036 | 30201 ft | 463 kts | 284° |
| 2026-05-06 09:40 | 44.57833 | -137.99612 | 30200 ft | 463 kts | 284° |
| 2026-05-06 09:40 | 44.60686 | -138.12574 | 30200 ft | 463 kts | 284° |
| 2026-05-06 09:41 | 44.62578 | -138.21217 | 30201 ft | 463 kts | 284° |
| 2026-05-06 09:41 | 44.64463 | -138.29864 | 30201 ft | 463 kts | 284° |
| 2026-05-06 09:42 | 44.66332 | -138.38466 | 30201 ft | 463 kts | 284° |
| 2026-05-06 09:42 | 44.68204 | -138.47125 | 30201 ft | 463 kts | 284° |
| 2026-05-06 09:43 | 44.70070 | -138.55788 | 30200 ft | 463 kts | 284° |
| 2026-05-06 09:43 | 44.71917 | -138.64398 | 30200 ft | 463 kts | 283° |
| 2026-05-06 09:44 | 44.73769 | -138.73069 | 30201 ft | 463 kts | 283° |
| 2026-05-06 09:44 | 44.75616 | -138.81752 | 30201 ft | 463 kts | 283° |
| 2026-05-06 09:45 | 44.77457 | -138.90447 | 30201 ft | 463 kts | 283° |
| 2026-05-06 09:45 | 44.79289 | -138.99133 | 30200 ft | 463 kts | 283° |
| 2026-05-06 09:46 | 44.81103 | -139.07768 | 30200 ft | 463 kts | 283° |
| 2026-05-06 09:46 | 44.82923 | -139.16472 | 30200 ft | 463 kts | 283° |
| 2026-05-06 09:47 | 44.84735 | -139.25171 | 30201 ft | 463 kts | 283° |
| 2026-05-06 09:47 | 44.86539 | -139.33871 | 30201 ft | 463 kts | 283° |
| 2026-05-06 09:48 | 44.88039 | -139.41135 | 30201 ft | 463 kts | 282° |
| 2026-05-06 09:49 | 44.91891 | -139.59797 | 30201 ft | 463 kts | 283° |
| 2026-05-06 09:49 | 44.93691 | -139.68494 | 30200 ft | 461 kts | 282° |
| 2026-05-06 09:50 | 44.95447 | -139.77220 | 30201 ft | 461 kts | 282° |
| 2026-05-06 09:50 | 44.97182 | -139.85893 | 30201 ft | 461 kts | 282° |
| 2026-05-06 09:51 | 44.98958 | -139.94611 | 30198 ft | 463 kts | 284° |
| 2026-05-06 09:51 | 45.01702 | -140.02942 | 30195 ft | 470 kts | 294° |
| 2026-05-06 09:52 | 45.04890 | -140.11008 | 30202 ft | 470 kts | 295° |
| 2026-05-06 09:52 | 45.08219 | -140.18915 | 30201 ft | 471 kts | 296° |
| 2026-05-06 09:53 | 45.11626 | -140.26856 | 30201 ft | 471 kts | 296° |
| 2026-05-06 09:53 | 45.15033 | -140.34807 | 30200 ft | 471 kts | 296° |
| 2026-05-06 09:54 | 45.18420 | -140.42717 | 30199 ft | 471 kts | 296° |
| 2026-05-06 09:54 | 45.21868 | -140.50604 | 30200 ft | 470 kts | 296° |
| 2026-05-06 09:55 | 45.25285 | -140.58501 | 30201 ft | 470 kts | 296° |
| 2026-05-06 09:55 | 45.28689 | -140.66436 | 30201 ft | 470 kts | 296° |
| 2026-05-06 09:56 | 45.32079 | -140.74380 | 30201 ft | 470 kts | 295° |
| 2026-05-06 09:56 | 45.35442 | -140.82287 | 30200 ft | 470 kts | 295° |
| 2026-05-06 09:57 | 45.38820 | -140.90256 | 30200 ft | 470 kts | 295° |
| 2026-05-06 09:57 | 45.42194 | -140.98238 | 30200 ft | 470 kts | 295° |
| 2026-05-06 09:58 | 45.45558 | -141.06220 | 30201 ft | 470 kts | 295° |
| 2026-05-06 09:58 | 45.48895 | -141.14159 | 30201 ft | 469 kts | 295° |
| 2026-05-06 09:59 | 45.52245 | -141.22155 | 30203 ft | 469 kts | 295° |
| 2026-05-06 09:59 | 45.55590 | -141.30160 | 30196 ft | 471 kts | 294° |
| 2026-05-06 10:00 | 45.58938 | -141.38191 | 30208 ft | 466 kts | 294° |
| 2026-05-06 10:00 | 45.62241 | -141.46146 | 30245 ft | 466 kts | 294° |
| 2026-05-06 10:01 | 45.65541 | -141.54111 | 30232 ft | 468 kts | 294° |
| 2026-05-06 10:01 | 45.68852 | -141.62126 | 30227 ft | 465 kts | 294° |
| 2026-05-06 10:02 | 45.72143 | -141.70114 | 30232 ft | 467 kts | 294° |
| 2026-05-06 10:02 | 45.75424 | -141.78098 | 30229 ft | 467 kts | 294° |
| 2026-05-06 10:03 | 45.78719 | -141.86143 | 30229 ft | 467 kts | 294° |
| 2026-05-06 10:03 | 45.82000 | -141.94180 | 30231 ft | 466 kts | 294° |
| 2026-05-06 10:04 | 45.85277 | -142.02229 | 30231 ft | 468 kts | 294° |
| 2026-05-06 10:04 | 45.88569 | -142.10329 | 30234 ft | 470 kts | 294° |
| 2026-05-06 10:05 | 45.91866 | -142.18476 | 30229 ft | 472 kts | 294° |
| 2026-05-06 10:05 | 45.95132 | -142.26569 | 30224 ft | 468 kts | 294° |
| 2026-05-06 10:06 | 45.98406 | -142.34705 | 30226 ft | 471 kts | 294° |
| 2026-05-06 10:06 | 46.01656 | -142.42809 | 30203 ft | 470 kts | 294° |
| 2026-05-06 10:07 | 46.04921 | -142.50965 | 30200 ft | 469 kts | 293° |
| 2026-05-06 10:07 | 46.08159 | -142.59085 | 30194 ft | 467 kts | 293° |
| 2026-05-06 10:08 | 46.11402 | -142.67236 | 30203 ft | 470 kts | 293° |
| 2026-05-06 10:08 | 46.14652 | -142.75432 | 30201 ft | 471 kts | 293° |
| 2026-05-06 10:09 | 46.17902 | -142.83653 | 30199 ft | 470 kts | 293° |
| 2026-05-06 10:09 | 46.21132 | -142.91848 | 30202 ft | 470 kts | 293° |
| 2026-05-06 10:10 | 46.24334 | -142.99991 | 30198 ft | 470 kts | 293° |
| 2026-05-06 10:10 | 46.27573 | -143.08259 | 30178 ft | 475 kts | 293° |
| 2026-05-06 10:11 | 46.30840 | -143.16626 | 30171 ft | 476 kts | 293° |
| 2026-05-06 10:11 | 46.34075 | -143.24931 | 30170 ft | 470 kts | 292° |
| 2026-05-06 10:12 | 46.37268 | -143.33148 | 30176 ft | 467 kts | 292° |
| 2026-05-06 10:12 | 46.40466 | -143.41414 | 30136 ft | 473 kts | 292° |
| 2026-05-06 10:13 | 46.43691 | -143.49770 | 30143 ft | 476 kts | 292° |
| 2026-05-06 10:13 | 46.46352 | -143.56686 | 30135 ft | 468 kts | 292° |
| 2026-05-06 10:14 | 46.49523 | -143.64947 | 30138 ft | 471 kts | 292° |
| 2026-05-06 10:14 | 46.53240 | -143.74668 | 30139 ft | 476 kts | 292° |
| 2026-05-06 10:15 | 46.55939 | -143.81747 | 30142 ft | 478 kts | 292° |
| 2026-05-06 10:15 | 46.59124 | -143.90124 | 30121 ft | 475 kts | 292° |
| 2026-05-06 10:16 | 46.62310 | -143.98526 | 30112 ft | 475 kts | 292° |
| 2026-05-06 10:16 | 46.65500 | -144.06966 | 30112 ft | 478 kts | 292° |
| 2026-05-06 10:17 | 46.68702 | -144.15465 | 30120 ft | 478 kts | 292° |
| 2026-05-06 10:17 | 46.71882 | -144.23932 | 30075 ft | 474 kts | 292° |
| 2026-05-06 10:18 | 46.75031 | -144.32345 | 30085 ft | 471 kts | 292° |
| 2026-05-06 10:18 | 46.78176 | -144.40773 | 30082 ft | 474 kts | 292° |
| 2026-05-06 10:19 | 46.81319 | -144.49221 | 30083 ft | 477 kts | 292° |
| 2026-05-06 10:19 | 46.84467 | -144.57709 | 30078 ft | 475 kts | 292° |
| 2026-05-06 10:20 | 46.87653 | -144.66195 | 30058 ft | 476 kts | 292° |
| 2026-05-06 10:20 | 46.90779 | -144.74687 | 30051 ft | 474 kts | 291° |
| 2026-05-06 10:21 | 46.93888 | -144.83212 | 30022 ft | 475 kts | 291° |
| 2026-05-06 10:21 | 46.96974 | -144.91685 | 30019 ft | 474 kts | 291° |
| 2026-05-06 10:22 | 47.00086 | -145.00200 | 29987 ft | 474 kts | 292° |
| 2026-05-06 10:22 | 47.03512 | -145.08534 | 29986 ft | 478 kts | 296° |
| 2026-05-06 10:23 | 47.07142 | -145.16664 | 30000 ft | 477 kts | 296° |
| 2026-05-06 10:23 | 47.10756 | -145.24871 | 29997 ft | 479 kts | 296° |
| 2026-05-06 10:24 | 47.14333 | -145.33143 | 29964 ft | 480 kts | 295° |
| 2026-05-06 10:24 | 47.17907 | -145.41455 | 29961 ft | 481 kts | 295° |
| 2026-05-06 10:25 | 47.21491 | -145.49670 | 29975 ft | 481 kts | 296° |
| 2026-05-06 10:25 | 47.25097 | -145.57956 | 29962 ft | 480 kts | 295° |
| 2026-05-06 10:26 | 47.28666 | -145.66254 | 29970 ft | 479 kts | 295° |
| 2026-05-06 10:26 | 47.32225 | -145.74572 | 29965 ft | 480 kts | 295° |
| 2026-05-06 10:27 | 47.35771 | -145.82902 | 29962 ft | 479 kts | 295° |
| 2026-05-06 10:27 | 47.39301 | -145.91216 | 29964 ft | 475 kts | 295° |
| 2026-05-06 10:28 | 47.42812 | -145.99514 | 29971 ft | 477 kts | 295° |
| 2026-05-06 10:28 | 47.46298 | -146.07779 | 29964 ft | 478 kts | 295° |
| 2026-05-06 10:29 | 47.49828 | -146.16171 | 29967 ft | 480 kts | 295° |
| 2026-05-06 10:29 | 47.53345 | -146.24563 | 29965 ft | 481 kts | 295° |
| 2026-05-06 10:30 | 47.56861 | -146.32973 | 29963 ft | 478 kts | 295° |
| 2026-05-06 10:30 | 47.60343 | -146.41337 | 29969 ft | 477 kts | 295° |
| 2026-05-06 10:31 | 47.63839 | -146.49750 | 29922 ft | 481 kts | 295° |
| 2026-05-06 10:31 | 47.67328 | -146.58179 | 29929 ft | 481 kts | 295° |
| 2026-05-06 10:32 | 47.70831 | -146.66659 | 29937 ft | 480 kts | 295° |
| 2026-05-06 10:32 | 47.74314 | -146.75124 | 29936 ft | 478 kts | 294° |
| 2026-05-06 10:33 | 47.77752 | -146.83504 | 29935 ft | 479 kts | 294° |
| 2026-05-06 10:33 | 47.81222 | -146.91997 | 29933 ft | 480 kts | 294° |
| 2026-05-06 10:34 | 47.84667 | -147.00442 | 29931 ft | 478 kts | 294° |
| 2026-05-06 10:34 | 47.88123 | -147.08952 | 29941 ft | 480 kts | 294° |
| 2026-05-06 10:35 | 47.91546 | -147.17402 | 29934 ft | 476 kts | 294° |
| 2026-05-06 10:35 | 47.94968 | -147.25870 | 29938 ft | 477 kts | 294° |
| 2026-05-06 10:36 | 47.98410 | -147.34425 | 29931 ft | 483 kts | 294° |
| 2026-05-06 10:36 | 48.01874 | -147.43060 | 29939 ft | 484 kts | 294° |
| 2026-05-06 10:37 | 48.05300 | -147.51619 | 29940 ft | 482 kts | 294° |
| 2026-05-06 10:37 | 48.08746 | -147.60268 | 29929 ft | 485 kts | 294° |
| 2026-05-06 10:38 | 48.12203 | -147.68960 | 29934 ft | 485 kts | 294° |
| 2026-05-06 10:38 | 48.15629 | -147.77611 | 29936 ft | 482 kts | 294° |
| 2026-05-06 10:39 | 48.19048 | -147.86276 | 29933 ft | 484 kts | 294° |
| 2026-05-06 10:39 | 48.22465 | -147.94966 | 29935 ft | 481 kts | 294° |
| 2026-05-06 10:40 | 48.25853 | -148.03591 | 29937 ft | 482 kts | 294° |
| 2026-05-06 10:40 | 48.29241 | -148.12252 | 29931 ft | 480 kts | 294° |
| 2026-05-06 10:41 | 48.32604 | -148.20886 | 29940 ft | 477 kts | 294° |
| 2026-05-06 10:41 | 48.35965 | -148.29533 | 29932 ft | 481 kts | 294° |
| 2026-05-06 10:42 | 48.39347 | -148.38263 | 29932 ft | 484 kts | 294° |
| 2026-05-06 10:42 | 48.42721 | -148.47005 | 29934 ft | 479 kts | 294° |
| 2026-05-06 10:43 | 48.46054 | -148.55669 | 29937 ft | 478 kts | 294° |
| 2026-05-06 10:44 | 48.51090 | -148.68810 | 29934 ft | 484 kts | 294° |
| 2026-05-06 10:44 | 48.54418 | -148.77533 | 29935 ft | 481 kts | 294° |
| 2026-05-06 10:45 | 48.57749 | -148.86293 | 29935 ft | 482 kts | 294° |
| 2026-05-06 10:45 | 48.61103 | -148.95139 | 29937 ft | 486 kts | 294° |
| 2026-05-06 10:46 | 48.64451 | -149.04006 | 29935 ft | 485 kts | 294° |
| 2026-05-06 10:46 | 48.67748 | -149.12759 | 29932 ft | 478 kts | 294° |
| 2026-05-06 10:47 | 48.71042 | -149.21533 | 29935 ft | 481 kts | 294° |
| 2026-05-06 10:47 | 48.74347 | -149.30375 | 29940 ft | 483 kts | 294° |
| 2026-05-06 10:48 | 48.77641 | -149.39215 | 29933 ft | 479 kts | 294° |
| 2026-05-06 10:48 | 48.80890 | -149.47957 | 29939 ft | 479 kts | 293° |
| 2026-05-06 10:49 | 48.84176 | -149.56831 | 29935 ft | 485 kts | 294° |
| 2026-05-06 10:49 | 48.87507 | -149.65714 | 29941 ft | 481 kts | 294° |
| 2026-05-06 10:50 | 48.90767 | -149.74598 | 29929 ft | 483 kts | 293° |
| 2026-05-06 10:50 | 48.94034 | -149.83572 | 29931 ft | 486 kts | 293° |
| 2026-05-06 10:51 | 48.97305 | -149.92578 | 29939 ft | 484 kts | 293° |
| 2026-05-06 10:51 | 49.00546 | -150.01500 | 29936 ft | 484 kts | 293° |
| 2026-05-06 10:52 | 49.03808 | -150.10493 | 29934 ft | 483 kts | 293° |
| 2026-05-06 10:52 | 49.07025 | -150.19440 | 29958 ft | 482 kts | 292° |
| 2026-05-06 10:53 | 49.10244 | -150.28441 | 29962 ft | 482 kts | 292° |
| 2026-05-06 10:53 | 49.13419 | -150.37351 | 29966 ft | 480 kts | 292° |